This is the latest recevied weather packets stored in our database for station/object LU4HH-15. If no packets are shown the sender has not sent any weather packets the latest 10 day(s).
| Time | Temp. | Humidity | Pressure | Rain* | Wind** | Luminosity | Snow |
|---|---|---|---|---|---|---|---|
| 1788377707 | 20° C | 53% | 1017.2 hPa | - | - | - | - |
| 1788376806 | 20° C | 53% | 1017.3 hPa | - | - | - | - |
| 1788375905 | 20° C | 53% | 1017.3 hPa | - | - | - | - |
| 1788375003 | 20.56° C | 53% | 1017.3 hPa | - | - | - | - |
| 1788374103 | 20.56° C | 53% | 1017.1 hPa | - | - | - | - |
| 1788373202 | 20.56° C | 54% | 1017.3 hPa | - | - | - | - |
| 1788372301 | 20.56° C | 54% | 1017.1 hPa | - | - | - | - |
| 1788371399 | 22.22° C | 51% | 1017.5 hPa | - | - | - | - |
| 1788366929 | 21.67° C | 51% | 1019.3 hPa | - | - | - | - |
| 1788366106 | 19.44° C | 56% | 1019.2 hPa | - | - | - | - |
| 1788365201 | 19.44° C | 56% | 1019.5 hPa | - | - | - | - |
| 1788364299 | 18.89° C | 55% | 1019.9 hPa | - | - | - | - |
| 1788363398 | 20.56° C | 52% | 1020.3 hPa | - | - | - | - |
| 1788360942 | 20° C | 52% | 1020.8 hPa | - | - | - | - |
| 1788358827 | 17.78° C | 56% | 1021.3 hPa | - | - | - | - |
| 1788357926 | 17.22° C | 56% | 1021.3 hPa | - | - | - | - |
| 1788357025 | 17.22° C | 56% | 1021.5 hPa | - | - | - | - |
| 1788356123 | 17.22° C | 56% | 1021.8 hPa | - | - | - | - |
| 1788355223 | 16.67° C | 56% | 1021.7 hPa | - | - | - | - |
| 1788354322 | 16.67° C | 55% | 1021.3 hPa | - | - | - | - |
| 1788353421 | 16.67° C | 55% | 1021.4 hPa | - | - | - | - |
| 1788352522 | 16.11° C | 55% | 1021.6 hPa | - | - | - | - |
| 1788351618 | 16.11° C | 55% | 1021.5 hPa | - | - | - | - |
| 1788350717 | 16.11° C | 55% | 1021.6 hPa | - | - | - | - |
| 1788349816 | 16.11° C | 55% | 1021.7 hPa | - | - | - | - |
* Rain since midnight (hover to see other rain measurements)
** Current wind speed in m/s (hover to see current wind gust speed)